NWS Home NWS Lubbock West Texas Mesonet Latest Conditions as of 0647 AM, Wed Dec 13, 2017

Latest   N   C   S   Daily Sum   3hrΔ   24hrΔ   Soil Data 
Site Map   24hr Precip   72hr Precip   Google Plot


Station Time of Last Temp Dew Pt. RH Wind Direction Wind Speed Wind Gust Max Wind Max Temp Min Temp Max RH Min RH Altimeter 1HR Rain Today's Rain Solar Rad Wind ChillRed Flag
Abernathy 5ENE  06:40 AM 29 12 48% W89 15 mph 264° @ 0110 AM 36 28 51 33 30.04" 0 0 0 21  
Adrian 6WSW  06:40 AM 36 6 28% W1820 23 mph 257° @ 0628 AM 42 36 29 23 30.02" 0 0 0    
Aiken 3WSW  06:40 AM 28 10 48% W89 15 mph 257° @ 0245 AM 36 28 48 33 30.04" 0 0 0 20  
Amarillo 15NNW   06:40 AM 28 10 45% W1011 11 mph 263° @ 0640 AM 36 27 46 32 30.01" 0 0 0 19  
Amarillo 7SSE  06:40 AM 27 10 48% W1213 15 mph 245° @ 0135 AM 35 27 48 32 30.01" 0 0 0 16  
Amarillo 9NNE  06:40 AM 22 10 58% S57 8 mph 207° @ 1212 AM 33 22 65 35 30.01" 0 0 0 15  
Amherst 1NE  06:40 AM 34 11 37% W1113 18 mph 265° @ 0600 AM 38 26 51 26 30.04" 0 0 0 26  
Andrews 2E  06:40 AM 31 19 61% W89 11 mph 245° @ 1205 AM 39 31 61 40 30.09" 0 0 0 24  
Anton 6SSW  06:40 AM 27 10 47% W1012 13 mph 278° @ 0620 AM 29 25 47 40 30.06" 0 0 0 18  
Aspermont 3NE  06:40 AM 34 14 44% SW56 15 mph 204° @ 1235 AM 43 33 47 33 30.06" 0 0 0 29  
Big Bend NP - Persimmon Gap  06:40 AM 34 29 81% NW12 7 mph 237° @ 0155 AM 42 34 85 53 30.16" 0 0 0    
Big Lake 1WNW  06:40 AM 33 23 66% S77 11 mph 196° @ 0544 AM 36 31 76 58 30.13" 0 0 0 27  
Bootleg 11WNW  06:40 AM 28 6 39% W910 24 mph 247° @ 1244 AM 37 28 39 27 30.04" 0 0 0 19  
Boys Ranch 1WSW  06:40 AM 25 10 51% NW12 12 mph 271° @ 0342 AM 35 25 51 34 30.03" 0 0 0    
Brownfield 2S  06:40 AM 30 13 49% W1012 15 mph 262° @ 0315 AM 37 30 50 32 30.07" 0 0 0 21  
Canadian 6E  06:40 AM 40 12 31% NW1416 17 mph 302° @ 0624 AM 42 38 35 29 29.93" 0 0 0    
Caprock Canyons State Park  06:40 AM 47 8 20% W1823 42 mph 262° @ 1237 AM 49 46 22 16 29.98" 0 0 0    
Childress 2NNE  06:40 AM 42 11 27% W1013 22 mph 233° @ 0105 AM 47 42 27 23 29.96" 0 0 0    
Clarendon 2WSW  06:40 AM 39 9 30% W1416 19 mph 266° @ 0530 AM 46 39 30 21 29.96" 0 0 0    
Claude 12SW  06:40 AM 36 9 32% W1523 23 mph 280° @ 0640 AM 48 36 32 18 29.99" 0 0 0    
Clyde 2WNW  06:40 AM 44 18 34% SW1113 15 mph 225° @ 0548 AM 45 43 39 32 30.07" 0 0 0    
Colorado City 5NW  06:40 AM 28 20 72% S66 8 mph 192° @ 0608 AM 34 25 76 53 30.10" 0 0 0 21  
Coyanosa 2N  06:40 AM 28 25 88% SW79 11 mph 226° @ 1224 AM 33 26 94 81 30.14" 0 0 0 21  
Crowell 1E  06:40 AM 40 11 31% SW1215 15 mph 230° @ 0637 AM 43 38 37 30 30.00" 0 0 0    
Dell City  06:40 AM 25 14 61% W44 11 mph 290° @ 1209 AM 29 21 75 55 30.19" 0 0 0    
Denver City 7WNW  06:40 AM 30 15 54% SW1213 17 mph 252° @ 0525 AM 34 30 54 35 30.07" 0 0 0 20  
Dimmitt 2NE  06:40 AM 34 10 36% SW1417 22 mph 245° @ 0140 AM 39 34 39 27 30.02" 0 0 0 24  
Dora NM 2SW  06:40 AM 32 9 38% SW1314 19 mph 254° @ 0115 AM 39 31 41 28 30.06" 0 0 0 22  
Dozier 3W  06:40 AM 37 12 34% N00 23 mph 267° @ 0213 AM 49 36 36 21 29.97" 0 0 0    
Endee NM 2SW  06:40 AM 22 6 50% SW77 10 mph 226° @ 0603 AM 38 21 52 27 30.04" 0 0 0 14  
Floydada 2NNE  06:40 AM 30 10 42% W1316 17 mph 263° @ 0355 AM 35 29 44 34 30.02" 0 0 0 20  
Fluvanna 3WNW  06:40 AM 32 19 58% SW1314 14 mph 232° @ 0640 AM 38 32 58 39 30.06" 0 0 0 22  
Fort Chadbourne  06:40 AM 27 22 82% W33 7 mph 305° @ 0508 AM 33 24 91 71 30.11" 0 0 0    
Fort Lancaster  06:40 AM 27 26 95% N12 4 mph 10° @ 1201 AM 31 25 97 88 30.15" 0 0 0    
Fort Lewis CO  06:40 AM 17 2 49% NE55 13 mph 41° @ 0244 AM 30 15 58 32 30.24" 0 0 0    
Fort McKavett  06:40 AM 23 20 89% SW44 7 mph 223° @ 0526 AM 28 23 90 79 30.15" 0 0 0    
Friona 2NE  06:40 AM 28 9 45% W1316 16 mph 262° @ 0340 AM 33 27 49 38 30.03" 0 0 0 17  
Gail 2ESE  06:40 AM 34 19 53% SW1215 15 mph 237° @ 0510 AM 38 29 60 42 30.07" 0 0 0 25  
Goodlett 3W  06:40 AM 34 13 42% SW1011 15 mph 231° @ 1225 AM 39 32 48 35 29.97" 0 0 0 26  
Goodnight  06:40 AM 37 11 33% W1418 30 mph 283° @ 0437 AM 47 37 34 21 29.99" 0 0 0    
Graham 5SSW  06:40 AM 36 16 44% W1519 21 mph 264° @ 0635 AM 38 34 45 37 30.06" 0 0 0    
Guadalupe Mtns Natl Park  06:40 AM 52 11 20% NW3034 38 mph 327° @ 0639 AM 53 48 20 8 30.11" 0 0 0   12
Guthrie 10WSW  06:40 AM 38 9 31% SW1014 18 mph 228° @ 0510 AM 44 35 34 26 30.02" 0 0 0    
Happy 1E  06:40 AM 35 10 36% W1416 23 mph 260° @ 0257 AM 40 32 40 27 30.01" 0 0 0 26  
Hart 3N  06:40 AM 29 12 49% W1416 16 mph 263° @ 0640 AM 29 25 56 49 30.02" 0 0 0 18  
Haskell 1NW  06:40 AM 37 17 45% SW1318 18 mph 234° @ 0640 AM 38 35 47 40 30.05" 0 0 0    
Hereford 2NW  06:40 AM 27 9 45% W911 21 mph 249° @ 0225 AM 36 27 45 31 30.01" 0 0 0 18  
Hobbs NM 5NW  06:40 AM 28 16 60% W23 10 mph 249° @ 0357 AM 31 27 61 41 30.10" 0 0 0    
Jayton 1SSE  06:40 AM 33 13 43% W79 14 mph 258° @ 0305 AM 39 33 45 35 30.06" 0 0 0 27  
Junction 1SSW  06:40 AM 27 25 90% SW44 7 mph 184° @ 0628 AM 29 25 94 84 30.18" 0 0 0    
Knox City 3NW  06:40 AM 36 14 40% SW1415 16 mph 219° @ 0630 AM 42 29 58 33 30.04" 0 0 0    
Lake Alan Henry 1NW  06:40 AM 38 15 38% W1012 20 mph 261° @ 0606 AM 39 35 38 33 30.06" 0 0 0    
Lamesa 2SE  06:40 AM 28 19 70% W78 12 mph 258° @ 0315 AM 32 28 70 57 30.09" 0 0 0 21  
Lesley 2S  06:40 AM 38 12 33% NW1415 21 mph 287° @ 0525 AM 46 37 38 22 29.97" 0 0 0    
Levelland 4S  06:40 AM 24 7 49% W89 16 mph 243° @ 0505 AM 34 24 49 31 30.06" 0 0 0 15  
Lomax 1SSE  06:40 AM 26 20 78% S44 7 mph 212° @ 1245 AM 33 25 80 62 30.12" 0 0 0    
Lubbock 3WNW TTU  06:40 AM 28 8 42% W78 16 mph 260° @ 0155 AM 40 28 42 24 30.07" 0 0 0 21  
McCamey 1SSW  06:40 AM 30 25 82% N11 7 mph 119° @ 0424 AM 37 29 86 66 30.15" 0 0 0    
McLean 1E  06:40 AM 40 8 26% NW79 33 mph 277° @ 1255 AM 50 40 26 16 29.94" 0 0 0    
Memphis 1NE  06:40 AM 40 10 28% W68 16 mph 244° @ 0325 AM 48 36 38 20 29.97" 0 0 0    
Menard 2NW   06:40 AM 24 21 90% W67 8 mph 252° @ 0611 AM 28 23 93 84 30.15" 0 0 0 17  
Mertzon 3NNE  06:40 AM 26 22 82% SW45 8 mph 213° @ 0242 AM 29 25 85 75 30.14" 0 0 0    
Morton 1ENE  06:40 AM 29 8 41% W911 12 mph 252° @ 1240 AM 37 24 46 25 30.06" 0 0 0 20  
Muleshoe 2SSW  06:40 AM 25 11 53% W910 15 mph 263° @ 0540 AM 28 23 53 41 30.06" 0 0 0 16  
New Home  06:40 AM 29 12 49% W910 14 mph 254° @ 0514 AM 32 27 49 39 30.08" 0 0 0 21  
Northfield 1S  06:40 AM 41 10 29% W1112 17 mph 270° @ 0350 AM 46 38 33 21 29.98" 0 0 0    
O'Donnell 1N  06:40 AM 29 15 54% SW1012 13 mph 247° @ 0320 AM 32 26 62 46 30.08" 0 0 0 20  
Odell 4ENE  06:40 AM 39 13 34% SW910 16 mph 237° @ 0238 AM 44 36 47 30 29.98" 0 0 0    
Olton 6S  06:40 AM 26 10 51% W1112 14 mph 260° @ 0125 AM 31 24 58 38 30.04" 0 0 0 16  
Paducah 10SW  06:40 AM 42 9 26% SW1215 23 mph 261° @ 0605 AM 50 42 27 17 29.99" 0 0 0    
Palo Duro 4E (JA Ranch)  06:40 AM 37 10 31% W810 30 mph 257° @ 0125 AM 51 36 31 17 29.98" 0 0 0    
Palo Duro Canyon SP Floor  06:40 AM 34 10 36% N56 20 mph 314° @ 0141 AM 48 34 36 19 30.02" 0 0 0    
Palo Duro Canyon State Park Rim  06:40 AM 34 9 35% NW913 28 mph 273° @ 0137 AM 43 34 36 23 30.01" 0 0 0 26  
Pampa 2E  06:40 AM 43 11 27% W1217 22 mph 265° @ 0335 AM 45 43 28 24 29.96" 0 0 0    
Panhandle 1SSW  06:40 AM 37 10 33% W911 23 mph 250° @ 0148 AM 41 30 43 28 30.00" 0 0 0    
Plains 3N  06:40 AM 24 10 53% W1012 12 mph 252° @ 0525 AM 29 20 60 39 30.07" 0 0 0 14  
Plainview 1S  06:40 AM 33 12 41% W811 17 mph 261° @ 0210 AM 39 32 42 30 30.02" 0 0 0 26  
Post 1NE  06:40 AM 41 15 35% SW1825 26 mph 245° @ 0615 AM 43 39 35 27 30.05" 0 0 0    
Ralls 1SE  06:40 AM 31 7 37% W912 16 mph 268° @ 1205 AM 40 31 37 28 30.05" 0 0 0 23  
Reese Center  06:40 AM 25 9 49% W67 15 mph 259° @ 0230 AM 36 25 49 28 30.06" 0 0 0 18  
Roaring Springs 3N  06:40 AM 39 12 33% W1419 26 mph 255° @ 0120 AM 45 39 33 24 30.00" 0 0 0    
San Angelo 7NW  06:40 AM 25 18 75% W45 10 mph 283° @ 0435 AM 31 25 75 63 30.13" 0 0 0    
Seagraves 1SW  06:40 AM 27 16 64% W78 12 mph 261° @ 0545 AM 30 26 65 46 30.07" 0 0 0 20  
Seminole 2NNE  06:40 AM 29 17 61% W810 12 mph 259° @ 0105 AM 34 27 63 40 30.08" 0 0 0 21  
Seymour 3NW  06:40 AM 36 18 47% S912 15 mph 204° @ 0535 AM 38 34 55 47 30.02" 0 0 0    
Sierra Blanca 1SSE  06:40 AM 41 17 38% W23 5 mph 355° @ 0547 AM 46 36 49 30 30.18" 0 0 0    
Silverton 7ESE  06:40 AM 32 11 41% W1316 23 mph 258° @ 0330 AM 40 32 41 27 30.00" 0 0 0 22  
Slaton 2NE  06:40 AM 32 11 41% W1114 20 mph 248° @ 0345 AM 38 32 41 27 30.06" 0 0 0 23  
Snyder 3E  06:40 AM 27 20 75% S68 13 mph 214° @ 0540 AM 36 27 75 50 30.08" 0 0 0 20  
Snyder 3SSW  06:40 AM 28 19 68% SW67 14 mph 230° @ 0544 AM 38 28 68 45 30.08" 0 0 0 21  
Spur 1W  06:40 AM 35 10 35% W68 13 mph 247° @ 0520 AM 38 32 40 29 30.04" 0 0 0 29  
St. Lawrence 5SW  06:40 AM 31 22 71% SW88 11 mph 222° @ 0325 AM 35 29 73 58 30.11" 0 0 0 24  
Stamford 5ESE  06:40 AM 35 19 52% SW66 11 mph 239° @ 0438 AM 37 32 57 47 30.07" 0 0 0    
Sterling City 4WSW  06:40 AM 21 17 85% NE44 4 mph 38° @ 0640 AM 25 20 87 77 30.12" 0 0 0    
Stinnett 1NNW  06:40 AM 36 12 36% W1618 25 mph 260° @ 1248 AM 44 35 37 26 29.97" 0 0 0    
Sundown 8WSW  06:40 AM 22 8 54% W1111 15 mph 253° @ 0145 AM 34 22 56 33 30.06" 0 0 0 11  
Sweetwater 11SW   06:40 AM 36 19 51% SW610 13 mph 227° @ 0601 AM 44 35 52 33 30.10" 0 0 0    
Tahoka 3NNE  06:40 AM 35 14 43% W1215 19 mph 250° @ 0558 AM 37 32 43 31 30.06" 0 0 0 26  
Tarzan 2WNW  06:40 AM 30 21 68% SW67 11 mph 249° @ 1220 AM 33 29 70 57 30.10" 0 0 0 24  
Tatum NM 2SW  06:40 AM 22 10 59% NW810 15 mph 243° @ 0110 AM 35 20 61 35 30.08" 0 0 0 12  
Throckmorton 1SW  06:40 AM 39 19 43% SW912 19 mph 240° @ 0550 AM 44 39 46 38 30.05" 0 0 0    
Tulia 2ENE  06:40 AM 34 13 41% W1620 22 mph 254° @ 0240 AM 39 33 44 31 30.00" 0 0 0 24  
Turkey 2WSW  06:40 AM 41 11 29% SW1315 29 mph 247° @ 0130 AM 48 41 29 20 29.97" 0 0 0    
Umbarger 3NNE  06:40 AM 29 10 45% W1112 18 mph 245° @ 0322 AM 35 27 47 33 30.02" 0 0 0 19  
Vigo Park  06:37 AM 29 11 47% W89 18 mph 255° @ 1221 AM 39 29 47 30 30.01" 0 0 0 21  
Wall 2E  06:40 AM 30 23 76% W89 10 mph 260° @ 0634 AM 33 28 82 68 30.14" 0 0 0 23  
Weinert 2NNE  06:40 AM 31 16 52% SW45 12 mph 233° @ 0108 AM 40 31 52 40 30.05" 0 0 0    
Welch  06:40 AM 26 16 65% W77 12 mph 255° @ 0431 AM 31 26 65 52 30.09" 0 0 0 18  
White River Lake 6NW  06:40 AM 41 10 27% W1419 27 mph 259° @ 1210 AM 48 40 29 14 30.04" 0 0 0    
Wolfforth 6SSW  06:40 AM 31 10 41% SW810 15 mph 237° @ 0525 AM 35 31 41 29 30.07" 0 0 0 23  

West Texas Mesonet Home   Site Map/Menu  NWS Lubbock Soil Data  Daily Summary Page  24hr Precip  72hr Precip  Google Plot